Time;durP1;ratioP1;P1;durP2;ratioP2;P2;SDS_P1;SDS_P2;PMS_P1;PMS_P2;Temp;Humidity;BMP_temperature;BMP_pressure;BME280_temperature;BME280_humidity;BME280_pressure;Samples;Min_cycle;Max_cycle;Signal;HPM_P1;HPM_P2
2022/12/15 00:41:58;;;;;;;10.63;7.93;;;;;;;-4.76;80.12;100345.91;6180645;28;20228;-71
2022/12/15 00:45:19;;;;;;;11.77;8.70;;;;;;;-4.67;79.92;100353.44;6189969;28;20269;-71
2022/12/15 00:48:42;;;;;;;13.70;9.90;;;;;;;-4.52;79.85;100357.28;6207128;28;20631;-71
2022/12/15 01:21:13;;;;;;;9.10;7.30;;;;;;;-5.30;82.91;100340.72;6194156;28;20580;-72
2022/12/15 01:24:35;;;;;;;10.67;7.27;;;;;;;-5.12;82.33;100348.03;6208703;28;20244;-72
2022/12/15 01:27:56;;;;;;;13.27;8.23;;;;;;;-4.93;81.92;100356.13;6194219;28;20630;-72
2022/12/15 01:31:17;;;;;;;7.03;6.20;;;;;;;-4.79;81.52;100351.25;6192782;28;20332;-71
2022/12/15 01:34:37;;;;;;;16.40;9.23;;;;;;;-4.87;81.35;100361.16;6203729;28;20312;-72
2022/12/15 01:37:58;;;;;;;19.10;7.73;;;;;;;-5.05;81.58;100370.53;6175599;28;20237;-72
2022/12/15 01:41:20;;;;;;;10.63;7.73;;;;;;;-5.09;82.14;100363.66;6182034;28;20526;-71
2022/12/15 01:44:41;;;;;;;8.23;6.37;;;;;;;-5.21;82.70;100350.94;6204678;28;20221;-72
2022/12/15 01:48:07;;;;;;;11.27;7.80;;;;;;;-4.92;82.17;100363.94;6193370;28;20233;-72
2022/12/15 01:51:33;;;;;;;11.83;7.97;;;;;;;-5.12;82.81;100358.53;6195141;28;20233;-72
2022/12/15 01:54:56;;;;;;;9.60;6.73;;;;;;;-5.13;83.42;100351.53;6206786;28;20264;-72
2022/12/15 01:58:20;;;;;;;8.87;7.50;;;;;;;-4.91;82.91;100362.19;6203014;28;20256;-72
2022/12/15 02:01:41;;;;;;;10.43;7.10;;;;;;;-4.79;82.77;100374.91;6186951;28;20234;-72
2022/12/15 02:05:06;;;;;;;9.30;7.43;;;;;;;-4.70;82.56;100389.50;6185929;28;20241;-71
2022/12/15 02:08:26;;;;;;;11.77;8.23;;;;;;;-5.17;83.73;100377.94;6195141;28;20225;-72
2022/12/15 02:12:00;;;;;;;9.63;7.40;;;;;;;-5.06;84.06;100384.59;6186901;28;20229;-71
2022/12/15 02:15:30;;;;;;;12.03;6.33;;;;;;;-4.89;83.85;100386.66;6188873;28;20253;-71
2022/12/15 02:18:59;;;;;;;8.60;7.70;;;;;;;-4.78;82.79;100391.53;6203623;28;20221;-71
2022/12/15 02:22:31;;;;;;;8.80;7.17;;;;;;;-4.84;83.30;100394.38;6190388;28;20241;-72
2022/12/15 02:26:24;;;;;;;11.10;6.10;;;;;;;-4.92;82.88;100386.72;6192765;28;20245;-71
2022/12/15 02:30:21;;;;;;;9.07;4.67;;;;;;;-4.95;82.90;100379.84;6202363;28;20233;-72
2022/12/15 02:33:50;;;;;;;7.57;5.37;;;;;;;-4.80;82.24;100381.09;6204999;28;20224;-72
2022/12/15 02:37:16;;;;;;;9.60;6.27;;;;;;;-4.57;81.29;100386.41;6194564;28;20340;-71
2022/12/15 02:40:37;;;;;;;11.40;6.37;;;;;;;-4.47;80.79;100381.66;6193166;28;20925;-72
2022/12/15 02:43:59;;;;;;;7.87;5.50;;;;;;;-4.45;80.49;100390.34;6205067;28;20253;-71
2022/12/15 02:47:32;;;;;;;24.27;6.20;;;;;;;-4.44;80.72;100378.91;6188075;28;20237;-71
2022/12/15 02:51:24;;;;;;;6.87;5.83;;;;;;;-4.39;80.28;100382.25;6192114;28;20236;-71
2022/12/15 02:55:14;;;;;;;7.60;5.53;;;;;;;-4.36;80.41;100372.47;6210037;28;21147;-72
2022/12/15 02:58:43;;;;;;;7.83;5.90;;;;;;;-4.32;80.71;100384.59;6208430;28;20233;-71
2022/12/15 03:02:07;;;;;;;5.27;4.50;;;;;;;-4.32;80.74;100391.63;6188153;28;20220;-71
2022/12/15 03:05:31;;;;;;;9.30;6.30;;;;;;;-4.33;80.79;100390.78;6193466;28;20229;-72
2022/12/15 03:08:52;;;;;;;10.10;7.87;;;;;;;-4.28;81.39;100391.47;6182026;28;20241;-71
2022/12/15 03:12:13;;;;;;;9.33;6.90;;;;;;;-4.27;81.29;100387.91;6193735;28;20225;-70
2022/12/15 03:15:34;;;;;;;8.37;6.87;;;;;;;-4.27;81.69;100374.75;6191146;28;20232;-71
2022/12/15 03:18:55;;;;;;;11.03;7.00;;;;;;;-4.36;81.94;100380.34;6204819;28;20232;-71
2022/12/15 03:22:17;;;;;;;6.17;4.90;;;;;;;-4.33;82.07;100382.00;6192220;28;20233;-71
2022/12/15 03:25:38;;;;;;;12.47;8.70;;;;;;;-4.28;82.49;100393.25;6190535;28;20627;-71
2022/12/15 03:28:59;;;;;;;7.70;6.33;;;;;;;-4.27;83.88;100390.53;6200425;28;20228;-72
2022/12/15 03:32:20;;;;;;;9.00;6.27;;;;;;;-4.27;83.24;100389.69;6194197;28;20229;-72
2022/12/15 03:35:41;;;;;;;9.33;7.70;;;;;;;-4.20;82.90;100397.31;6197278;28;20510;-72
2022/12/15 03:39:03;;;;;;;5.33;4.90;;;;;;;-4.10;83.53;100392.56;6202730;28;20708;-71
2022/12/15 03:45:58;;;;;;;8.30;5.87;;;;;;;-3.92;83.96;100385.75;6188402;28;20224;-72
2022/12/15 03:49:19;;;;;;;10.17;6.23;;;;;;;-3.91;84.67;100393.59;6207714;28;20233;-72
2022/12/15 03:52:40;;;;;;;10.80;6.93;;;;;;;-3.81;83.38;100388.81;6194373;28;20258;-71
2022/12/15 03:56:02;;;;;;;16.83;5.37;;;;;;;-3.82;85.16;100390.63;6188190;28;20229;-71
2022/12/15 03:59:23;;;;;;;7.27;5.73;;;;;;;-3.87;85.09;100391.69;6199261;28;20240;-71
2022/12/15 04:02:45;;;;;;;7.53;5.83;;;;;;;-3.93;85.50;100387.53;6190947;28;20236;-73
2022/12/15 04:06:06;;;;;;;11.07;5.73;;;;;;;-3.87;85.61;100392.56;6193582;28;20236;-71
2022/12/15 04:09:27;;;;;;;5.80;5.23;;;;;;;-3.80;85.89;100396.69;6212529;28;20622;-72
2022/12/15 04:12:56;;;;;;;8.67;7.27;;;;;;;-3.81;86.26;100408.13;6198997;28;20315;-73
2022/12/15 04:16:17;;;;;;;8.30;5.03;;;;;;;-3.80;86.46;100414.25;6200519;28;20223;-72
2022/12/15 04:23:16;;;;;;;12.53;7.30;;;;;;;-3.83;86.60;100402.06;6210029;28;20315;-72
2022/12/15 05:32:22;;;;;;;7.80;7.00;;;;;;;-3.79;88.91;100429.09;6193963;28;20601;-72
2022/12/15 05:35:43;;;;;;;10.10;6.27;;;;;;;-3.78;88.64;100423.81;6196291;28;20225;-73
2022/12/15 05:39:04;;;;;;;6.20;5.53;;;;;;;-3.75;87.86;100431.56;6205423;28;20232;-71
2022/12/15 05:42:27;;;;;;;7.50;5.33;;;;;;;-3.73;89.12;100445.53;6202433;28;20225;-72
2022/12/15 05:45:48;;;;;;;7.90;6.03;;;;;;;-3.75;89.09;100436.84;6193332;28;20555;-74
2022/12/15 05:49:12;;;;;;;6.87;5.40;;;;;;;-3.69;89.22;100446.31;6209596;28;22256;-72
2022/12/15 05:52:33;;;;;;;7.50;5.07;;;;;;;-3.70;88.88;100455.97;6194736;28;20221;-73
2022/12/15 05:56:01;;;;;;;8.73;6.33;;;;;;;-3.63;89.31;100462.69;6193014;28;20237;-72
2022/12/15 05:59:23;;;;;;;11.17;7.23;;;;;;;-3.61;88.11;100465.28;6206684;28;20490;-73
2022/12/15 06:02:44;;;;;;;6.33;5.83;;;;;;;-3.62;88.02;100466.19;6182275;28;20221;-72
2022/12/15 06:06:06;;;;;;;6.17;5.20;;;;;;;-3.67;89.05;100479.53;6191099;28;21912;-71
2022/12/15 06:09:28;;;;;;;9.83;6.53;;;;;;;-3.67;88.95;100481.31;6203163;28;20233;-72
2022/12/15 06:12:48;;;;;;;11.33;7.97;;;;;;;-3.70;89.48;100477.03;6187763;28;21119;-72
2022/12/15 06:16:13;;;;;;;12.53;6.53;;;;;;;-3.66;89.68;100488.28;6188993;28;20313;-73
2022/12/15 06:19:34;;;;;;;6.63;4.70;;;;;;;-3.66;90.14;100485.66;6199723;28;20613;-72
2022/12/15 06:22:54;;;;;;;7.87;6.70;;;;;;;-3.61;89.55;100486.38;6192106;28;20229;-73
2022/12/15 06:26:19;;;;;;;7.30;6.60;;;;;;;-3.61;89.24;100502.16;6193296;28;20260;-72
2022/12/15 06:29:40;;;;;;;14.60;6.07;;;;;;;-3.53;89.39;100505.38;6205311;28;20538;-72
2022/12/15 06:33:02;;;;;;;5.77;5.07;;;;;;;-3.49;89.27;100504.34;6195311;28;20245;-72
2022/12/15 06:36:23;;;;;;;6.97;6.33;;;;;;;-3.52;89.87;100507.06;6191875;28;21818;-69
2022/12/15 06:39:44;;;;;;;11.00;6.77;;;;;;;-3.49;89.29;100502.56;6194184;28;20779;-70
2022/12/15 06:43:06;;;;;;;8.63;6.83;;;;;;;-3.49;89.21;100509.59;6196572;28;20336;-70
2022/12/15 06:46:28;;;;;;;11.70;7.20;;;;;;;-3.51;88.71;100498.25;6183327;28;20237;-72
2022/12/15 06:49:51;;;;;;;11.47;6.80;;;;;;;-3.55;89.22;100508.06;6194113;28;20242;-73
2022/12/15 06:53:12;;;;;;;8.93;5.97;;;;;;;-3.57;89.37;100507.25;6190222;28;20234;-71
2022/12/15 06:56:35;;;;;;;13.07;8.90;;;;;;;-3.75;88.87;100520.22;6186545;28;20332;-71
2022/12/15 06:59:56;;;;;;;15.30;6.77;;;;;;;-4.14;87.32;100522.50;6192084;28;20225;-69
2022/12/15 07:03:19;;;;;;;10.23;6.50;;;;;;;-4.26;87.70;100518.53;6195393;28;20603;-71
2022/12/15 07:06:41;;;;;;;9.23;6.50;;;;;;;-4.26;86.67;100522.94;6192897;28;20372;-70
2022/12/15 07:10:02;;;;;;;9.27;6.60;;;;;;;-4.19;87.74;100532.31;6183582;28;20225;-70
2022/12/15 07:13:23;;;;;;;11.53;7.93;;;;;;;-4.28;87.51;100532.66;6192543;28;21006;-69
2022/12/15 07:16:44;;;;;;;7.37;6.70;;;;;;;-4.34;87.53;100538.97;6175873;28;20239;-68
2022/12/15 07:20:06;;;;;;;13.90;7.73;;;;;;;-4.32;87.03;100550.28;6182129;28;20225;-70
2022/12/15 07:23:29;;;;;;;10.20;5.60;;;;;;;-4.21;87.63;100556.06;6191929;28;20324;-71
2022/12/15 07:26:49;;;;;;;9.40;8.13;;;;;;;-4.16;87.28;100566.44;6167325;28;20503;-70
2022/12/15 07:30:12;;;;;;;12.37;8.07;;;;;;;-4.19;86.23;100569.16;6170036;28;20233;-69
2022/12/15 07:33:34;;;;;;;13.37;7.30;;;;;;;-4.13;86.17;100563.72;6187423;28;20686;-69
2022/12/15 07:36:55;;;;;;;13.87;7.40;;;;;;;-4.15;86.84;100573.41;6183032;28;22801;-71
2022/12/15 07:40:17;;;;;;;13.30;7.97;;;;;;;-4.01;86.22;100578.22;6183425;28;20530;-68
2022/12/15 07:43:38;;;;;;;12.47;8.80;;;;;;;-4.00;85.59;100578.16;6202455;28;20667;-69
2022/12/15 07:47:00;;;;;;;10.67;8.57;;;;;;;-3.94;85.27;100587.63;6185304;28;20236;-68
2022/12/15 07:50:20;;;;;;;8.57;7.70;;;;;;;-3.72;85.90;100596.47;6190751;28;20229;-68
2022/12/15 07:53:41;;;;;;;13.10;7.73;;;;;;;-3.31;84.76;100612.50;6197435;28;20626;-69
2022/12/15 07:57:06;;;;;;;9.50;7.60;;;;;;;-3.26;82.91;100602.69;6184942;28;20244;-71
2022/12/15 08:00:27;;;;;;;18.87;9.13;;;;;;;-2.86;82.46;100624.91;6173596;28;20619;-70
2022/12/15 08:03:49;;;;;;;8.43;7.63;;;;;;;-2.76;82.11;100607.78;6182932;28;20236;-69
2022/12/15 08:07:10;;;;;;;14.47;9.07;;;;;;;-2.87;82.63;100607.34;6179140;28;20253;-69
2022/12/15 08:10:31;;;;;;;13.70;7.93;;;;;;;-2.72;81.16;100612.03;6183905;28;20232;-69
2022/12/15 08:13:53;;;;;;;9.40;6.43;;;;;;;-2.97;82.71;100616.53;6198017;28;20226;-71
2022/12/15 08:17:14;;;;;;;13.17;7.50;;;;;;;-3.16;83.19;100626.03;6185539;28;20276;-70
2022/12/15 08:20:35;;;;;;;9.27;7.23;;;;;;;-3.16;84.28;100626.03;6191971;28;20241;-70
2022/12/15 08:23:56;;;;;;;14.40;8.53;;;;;;;-2.99;85.20;100626.28;6197297;28;20234;-70
2022/12/15 08:27:17;;;;;;;13.07;7.37;;;;;;;-3.01;84.76;100631.59;6186081;28;20233;-69
2022/12/15 08:30:40;;;;;;;13.10;9.47;;;;;;;-1.85;81.91;100634.81;6182307;28;20236;-70
2022/12/15 08:34:02;;;;;;;14.70;8.03;;;;;;;-0.92;77.06;100634.22;6198994;28;20256;-69
2022/12/15 08:37:23;;;;;;;14.73;10.27;;;;;;;-0.16;74.26;100628.78;6171964;28;20228;-68
2022/12/15 08:40:44;;;;;;;11.00;8.43;;;;;;;-0.40;73.11;100637.94;6193044;28;20248;-70
2022/12/15 08:44:05;;;;;;;34.23;19.90;;;;;;;-0.86;76.10;100645.41;6201389;28;20225;-71
2022/12/15 08:47:27;;;;;;;17.73;11.40;;;;;;;-1.44;78.78;100645.41;6196152;28;20316;-69
2022/12/15 08:50:48;;;;;;;10.57;8.33;;;;;;;-0.90;77.83;100648.25;6176420;28;20339;-70
2022/12/15 08:54:09;;;;;;;8.43;6.70;;;;;;;1.23;71.41;100643.56;6198665;28;20288;-70
2022/12/15 08:57:30;;;;;;;7.03;5.77;;;;;;;4.41;60.10;100635.53;6188643;28;20229;-71
2022/12/15 09:00:51;;;;;;;6.57;5.33;;;;;;;5.01;57.42;100642.00;6183734;28;20324;-70
2022/12/15 09:04:14;;;;;;;6.97;6.33;;;;;;;4.74;56.84;100633.22;6198551;28;20225;-69
2022/12/15 09:07:35;;;;;;;8.83;7.27;;;;;;;5.27;54.06;100633.03;6185786;28;20667;-69
2022/12/15 09:10:57;;;;;;;8.63;6.00;;;;;;;3.36;59.62;100630.06;6198075;28;20237;-70
2022/12/15 09:14:18;;;;;;;14.10;6.27;;;;;;;2.20;64.57;100636.28;6205523;28;20233;-69
2022/12/15 09:17:39;;;;;;;8.83;6.47;;;;;;;2.96;63.54;100645.00;6187430;28;20240;-69
2022/12/15 09:21:03;;;;;;;14.83;7.43;;;;;;;2.06;65.33;100643.34;6194715;28;20234;-68
2022/12/15 09:24:24;;;;;;;10.23;6.93;;;;;;;0.90;68.44;100642.72;6208837;28;20261;-68
2022/12/15 09:27:46;;;;;;;11.00;6.57;;;;;;;0.73;70.85;100648.09;6195716;28;20245;-68
2022/12/15 09:31:09;;;;;;;13.07;7.03;;;;;;;0.48;72.37;100643.19;6185259;28;21069;-68
2022/12/15 09:34:30;;;;;;;18.80;7.17;;;;;;;0.16;73.13;100651.91;6203117;28;20238;-69
2022/12/15 09:37:52;;;;;;;11.80;7.90;;;;;;;-0.33;75.31;100664.03;6190350;28;20233;-67
2022/12/15 09:41:21;;;;;;;12.53;9.17;;;;;;;-0.59;77.59;100667.06;6191988;28;20248;-68
2022/12/15 09:44:43;;;;;;;14.80;9.17;;;;;;;-0.48;79.54;100664.75;6201013;28;20255;-69
2022/12/15 09:48:10;;;;;;;7.53;6.63;;;;;;;0.09;79.62;100670.81;6198506;28;20233;-69
2022/12/15 09:51:37;;;;;;;11.23;6.20;;;;;;;0.17;77.69;100660.72;6189215;28;20249;-69
2022/12/15 09:55:01;;;;;;;8.20;7.03;;;;;;;0.36;75.86;100649.09;6188760;28;20233;-70
2022/12/15 09:58:35;;;;;;;13.83;7.60;;;;;;;1.07;72.18;100677.19;6199863;28;20307;-69
2022/12/15 10:02:09;;;;;;;8.87;7.33;;;;;;;-0.47;78.37;100695.59;6188682;28;20248;-68
2022/12/15 10:05:42;;;;;;;11.90;5.73;;;;;;;-1.19;82.95;100689.19;6184870;28;20611;-71
2022/12/15 10:09:09;;;;;;;14.60;7.53;;;;;;;-1.37;85.90;100678.56;6200325;28;20237;-69
2022/12/15 10:12:37;;;;;;;11.57;8.27;;;;;;;-1.35;87.27;100680.22;6190612;28;20568;-70
2022/12/15 10:16:02;;;;;;;10.57;6.90;;;;;;;-1.38;88.79;100669.78;6181933;28;20221;-70
2022/12/15 10:19:29;;;;;;;8.97;8.00;;;;;;;-1.35;88.99;100660.84;6201110;28;20331;-72
2022/12/15 10:22:51;;;;;;;6.07;5.47;;;;;;;-1.38;90.17;100661.88;6186054;28;20549;-70
2022/12/15 10:26:19;;;;;;;13.47;6.47;;;;;;;-1.38;90.38;100661.88;6190617;28;20222;-70
2022/12/15 10:29:44;;;;;;;8.43;6.00;;;;;;;-1.22;90.64;100668.19;6211000;28;20543;-69
2022/12/15 10:33:17;;;;;;;11.10;7.27;;;;;;;-1.07;90.21;100659.59;6194610;28;20264;-69
2022/12/15 10:36:49;;;;;;;6.20;5.07;;;;;;;-0.40;91.27;100654.69;6191900;28;20241;-70
2022/12/15 10:40:17;;;;;;;10.23;7.67;;;;;;;-0.61;88.90;100654.81;6190897;28;20229;-68
2022/12/15 10:43:40;;;;;;;7.27;6.10;;;;;;;-0.28;87.73;100654.09;6198924;28;20236;-69
2022/12/15 10:47:09;;;;;;;8.73;5.83;;;;;;;-0.22;87.13;100656.44;6185862;28;20566;-70
2022/12/15 10:50:30;;;;;;;11.17;8.30;;;;;;;-0.28;87.03;100662.03;6184736;28;20225;-68
2022/12/15 10:53:53;;;;;;;8.47;6.43;;;;;;;-0.50;87.36;100658.66;6196442;28;20627;-68
2022/12/15 10:57:21;;;;;;;7.60;5.77;;;;;;;-0.52;87.98;100659.69;6194837;28;20229;-68
2022/12/15 11:00:42;;;;;;;7.90;6.17;;;;;;;-0.21;87.80;100658.13;6183296;28;20252;-70
2022/12/15 11:04:26;;;;;;;9.43;6.33;;;;;;;-0.31;87.13;100658.66;6203140;28;20228;-68
2022/12/15 11:07:49;;;;;;;8.90;7.93;;;;;;;-0.23;87.06;100661.81;6183846;28;20229;-68
2022/12/15 11:15:39;;;;;;;10.23;6.07;;;;;;;-0.08;85.69;100648.69;6179964;28;20229;-70
2022/12/15 11:19:07;;;;;;;7.83;5.93;;;;;;;0.19;84.60;100650.91;6192694;28;20303;-71
2022/12/15 11:22:35;;;;;;;11.90;7.30;;;;;;;0.59;83.76;100645.28;6188861;28;20601;-70
2022/12/15 11:26:01;;;;;;;8.43;6.43;;;;;;;0.73;82.16;100658.72;6182888;28;20254;-70
2022/12/15 11:29:33;;;;;;;4.40;3.67;;;;;;;0.49;82.20;100663.47;6201768;28;20327;-71
2022/12/15 11:32:58;;;;;;;5.57;5.10;;;;;;;0.53;82.06;100664.16;6185324;28;20229;-71
2022/12/15 11:36:34;;;;;;;8.80;5.43;;;;;;;0.57;81.79;100660.41;6187819;28;21021;-71
2022/12/15 11:40:11;;;;;;;10.07;5.73;;;;;;;0.74;80.63;100660.41;6197683;28;20614;-71
2022/12/15 11:43:52;;;;;;;8.60;6.03;;;;;;;2.28;77.00;100657.09;6189257;28;20241;-70
2022/12/15 11:47:23;;;;;;;5.40;4.57;;;;;;;6.52;61.98;100651.44;6165824;28;20249;-70
2022/12/15 11:50:53;;;;;;;4.33;3.43;;;;;;;3.11;67.87;100665.34;6182958;28;20228;-70
2022/12/15 11:54:23;;;;;;;6.67;4.87;;;;;;;1.43;75.37;100683.19;6189279;28;20225;-69
2022/12/15 11:58:30;;;;;;;7.83;3.90;;;;;;;1.14;76.48;100689.22;6173743;28;20236;-72
2022/12/15 12:02:14;;;;;;;3.67;3.33;;;;;;;1.02;78.05;100689.00;6184576;28;20229;-72
2022/12/15 12:06:04;;;;;;;6.67;5.03;;;;;;;0.93;78.10;100684.16;6168726;28;20665;-70
2022/12/15 12:09:32;;;;;;;11.37;5.37;;;;;;;0.96;78.36;100679.56;6194793;28;20237;-69
2022/12/15 12:13:00;;;;;;;6.90;4.03;;;;;;;0.82;79.05;100682.06;6165412;28;20224;-72
2022/12/15 12:16:35;;;;;;;4.00;3.70;;;;;;;0.78;79.15;100685.81;6177441;28;20232;-68
2022/12/15 12:20:04;;;;;;;5.87;4.63;;;;;;;1.10;78.76;100682.38;6185661;28;20252;-69
2022/12/15 12:23:35;;;;;;;4.63;4.27;;;;;;;1.37;77.10;100674.72;6207361;28;20324;-69
2022/12/15 12:27:05;;;;;;;4.93;3.37;;;;;;;1.13;77.85;100679.53;6168461;28;20856;-72
2022/12/15 12:30:37;;;;;;;6.97;4.73;;;;;;;1.00;78.53;100682.94;6182940;28;20534;-70
2022/12/15 12:37:50;;;;;;;5.13;4.63;;;;;;;0.95;78.87;100688.47;6171976;28;20228;-68
2022/12/15 12:41:20;;;;;;;7.70;4.50;;;;;;;1.03;79.10;100685.41;6181173;28;20255;-70
2022/12/15 12:44:47;;;;;;;5.50;3.83;;;;;;;1.05;79.39;100687.03;6202924;28;20240;-71
2022/12/15 12:48:16;;;;;;;6.47;4.63;;;;;;;1.12;79.75;100684.94;6182489;28;20296;-68
2022/12/15 12:51:41;;;;;;;11.70;5.07;;;;;;;1.14;79.45;100680.38;6187882;28;20253;-70
2022/12/15 12:55:04;;;;;;;7.30;4.83;;;;;;;1.22;79.16;100683.50;6180746;28;20236;-69
2022/12/15 12:58:41;;;;;;;6.53;4.07;;;;;;;1.17;79.41;100673.09;6187797;28;20259;-69
2022/12/15 13:02:55;;;;;;;4.97;4.00;;;;;;;1.23;79.38;100674.59;6172145;28;20233;-70
2022/12/15 13:06:21;;;;;;;6.97;6.37;;;;;;;1.39;78.70;100679.00;6163560;28;20615;-69
2022/12/15 13:09:44;;;;;;;11.47;6.53;;;;;;;1.33;79.21;100675.81;6191886;28;20638;-70
2022/12/15 13:13:37;;;;;;;5.30;3.67;;;;;;;1.34;79.83;100696.97;6175099;28;20533;-70
2022/12/15 13:17:04;;;;;;;7.37;4.87;;;;;;;1.26;78.95;100693.00;6174083;28;20232;-69
2022/12/15 13:20:29;;;;;;;4.17;3.77;;;;;;;1.23;78.91;100683.41;6184203;28;20332;-68
2022/12/15 13:23:50;;;;;;;5.80;4.10;;;;;;;1.33;79.24;100679.34;6182313;28;20237;-69
2022/12/15 13:27:15;;;;;;;6.50;3.87;;;;;;;1.33;78.91;100684.66;6166388;28;20603;-70
2022/12/15 13:30:36;;;;;;;5.73;4.43;;;;;;;1.35;79.17;100674.78;6181449;28;20237;-69
2022/12/15 13:34:25;;;;;;;9.53;5.40;;;;;;;1.28;79.01;100685.81;6200712;28;20229;-69
2022/12/15 13:37:52;;;;;;;6.43;3.73;;;;;;;1.29;78.70;100683.09;6187497;28;20222;-71
2022/12/15 13:41:22;;;;;;;5.53;3.83;;;;;;;1.26;78.96;100674.41;6169718;28;20500;-69
2022/12/15 13:44:46;;;;;;;8.20;6.20;;;;;;;1.31;78.79;100683.00;6185803;28;20225;-69
2022/12/15 13:48:29;;;;;;;8.63;3.57;;;;;;;1.34;78.70;100689.00;6194078;28;20260;-70
2022/12/15 13:51:59;;;;;;;7.30;4.80;;;;;;;1.39;78.20;100678.13;6182769;28;20237;-70
2022/12/15 13:55:23;;;;;;;6.63;4.00;;;;;;;1.45;78.92;100683.09;6180840;28;20831;-70
2022/12/15 13:58:53;;;;;;;4.33;3.63;;;;;;;1.47;77.98;100684.75;6196949;28;20232;-69
2022/12/15 14:02:25;;;;;;;4.07;3.73;;;;;;;1.54;78.32;100687.94;6192261;28;20229;-70
2022/12/15 14:05:52;;;;;;;6.73;5.00;;;;;;;1.56;77.96;100694.84;6182402;28;20244;-69
2022/12/15 14:09:16;;;;;;;10.30;5.10;;;;;;;1.56;78.27;100684.22;6207535;28;20538;-69
2022/12/15 14:12:42;;;;;;;6.37;4.40;;;;;;;1.59;77.95;100677.88;6175996;28;20229;-71
2022/12/15 14:16:17;;;;;;;4.83;4.40;;;;;;;1.65;77.68;100682.84;6189743;28;20229;-72
2022/12/15 14:19:40;;;;;;;5.50;4.43;;;;;;;1.66;78.12;100703.19;6204318;28;20587;-69
2022/12/15 14:23:01;;;;;;;10.70;4.07;;;;;;;1.70;78.18;100679.94;6185150;28;20217;-70
2022/12/15 14:26:29;;;;;;;5.53;5.00;;;;;;;1.70;78.15;100687.91;6193766;28;20241;-70
2022/12/15 14:29:50;;;;;;;8.27;6.37;;;;;;;1.68;77.92;100690.66;6192795;28;20228;-69
2022/12/15 14:33:22;;;;;;;5.20;4.03;;;;;;;1.76;78.41;100684.91;6204621;28;20225;-71
2022/12/15 14:36:44;;;;;;;7.97;5.23;;;;;;;1.74;77.95;100689.47;6191837;28;20324;-69
2022/12/15 14:40:12;;;;;;;10.23;5.33;;;;;;;1.71;77.27;100708.25;6194157;28;20241;-68
2022/12/15 14:43:38;;;;;;;6.23;4.90;;;;;;;1.68;77.54;100703.94;6204888;28;20228;-70
2022/12/15 14:47:08;;;;;;;7.07;5.10;;;;;;;1.69;77.58;100687.06;6192552;28;20237;-70
2022/12/15 14:50:31;;;;;;;4.87;4.43;;;;;;;1.66;77.62;100700.53;6191759;28;20249;-69
2022/12/15 14:53:56;;;;;;;7.23;4.47;;;;;;;1.60;78.36;100701.72;6195452;28;20240;-69
2022/12/15 14:57:26;;;;;;;7.57;4.83;;;;;;;1.59;78.86;100702.66;6175008;28;20225;-71
2022/12/15 15:00:51;;;;;;;8.53;4.07;;;;;;;1.57;78.95;100712.50;6180772;28;20237;-68
2022/12/15 15:04:27;;;;;;;4.60;4.07;;;;;;;1.58;78.80;100708.06;6178365;28;20611;-69
2022/12/15 15:07:56;;;;;;;7.50;4.53;;;;;;;1.54;79.02;100701.22;6165338;28;20228;-70
2022/12/15 15:11:28;;;;;;;7.30;5.37;;;;;;;1.55;78.87;100705.56;6171162;28;20245;-69
2022/12/15 15:14:59;;;;;;;3.73;3.43;;;;;;;1.53;78.58;100710.97;6185581;28;20236;-70
2022/12/15 15:18:24;;;;;;;6.77;4.07;;;;;;;1.56;78.70;100712.59;6188125;28;20233;-70
2022/12/15 15:21:46;;;;;;;8.00;3.60;;;;;;;1.49;78.16;100717.38;6179621;28;20585;-68
2022/12/15 15:25:29;;;;;;;14.50;3.50;;;;;;;1.48;78.57;100720.13;6187292;28;21725;-70
2022/12/15 15:28:50;;;;;;;5.77;4.47;;;;;;;1.46;78.53;100720.19;6192236;28;20232;-69
2022/12/15 15:32:25;;;;;;;10.33;5.63;;;;;;;1.46;78.07;100722.84;6188255;28;20253;-69
2022/12/15 15:35:53;;;;;;;6.00;4.30;;;;;;;1.45;78.25;100720.28;6172022;28;20238;-69
2022/12/15 15:39:15;;;;;;;4.33;3.47;;;;;;;1.42;78.30;100729.25;6179725;28;20233;-69
2022/12/15 15:42:36;;;;;;;5.53;4.30;;;;;;;1.45;78.43;100723.81;6169535;28;20237;-70
2022/12/15 15:46:01;;;;;;;9.97;4.67;;;;;;;1.44;78.49;100732.69;6163679;28;20864;-71
2022/12/15 15:49:23;;;;;;;5.93;4.10;;;;;;;1.41;78.24;100730.22;6189497;28;20328;-71
2022/12/15 15:52:48;;;;;;;7.70;4.37;;;;;;;1.40;78.20;100719.66;6173298;28;20263;-71
2022/12/15 15:56:18;;;;;;;5.97;4.30;;;;;;;1.38;78.33;100737.47;6177373;28;20237;-70
2022/12/15 15:59:41;;;;;;;5.87;3.97;;;;;;;1.35;78.62;100738.53;6190929;28;20221;-70
2022/12/15 16:03:04;;;;;;;4.73;4.33;;;;;;;1.39;78.30;100725.94;6187044;28;20236;-69
2022/12/15 16:06:25;;;;;;;13.30;4.50;;;;;;;1.41;78.65;100727.56;6185244;28;20245;-70
2022/12/15 16:09:59;;;;;;;7.83;4.53;;;;;;;1.42;78.19;100725.75;6149553;28;20233;-76
2022/12/15 16:13:21;;;;;;;5.03;3.83;;;;;;;1.42;78.32;100718.66;6179714;28;20253;-70
2022/12/15 16:16:52;;;;;;;6.97;5.77;;;;;;;1.44;78.98;100721.25;6175356;28;20312;-70
2022/12/15 16:20:20;;;;;;;6.57;4.60;;;;;;;1.49;78.54;100713.88;6191889;28;20224;-72
2022/12/15 16:23:46;;;;;;;4.83;3.93;;;;;;;1.52;78.88;100711.06;6193934;28;20232;-70
2022/12/15 16:27:12;;;;;;;9.30;4.33;;;;;;;1.46;78.76;100709.56;6185727;28;20325;-70
2022/12/15 16:30:33;;;;;;;4.67;4.10;;;;;;;1.49;78.64;100720.03;6177312;28;20229;-71
2022/12/15 16:33:57;;;;;;;5.83;4.90;;;;;;;1.49;78.73;100716.53;6142278;28;20248;-70
2022/12/15 16:37:27;;;;;;;5.90;4.80;;;;;;;1.45;78.76;100713.19;6162665;28;20608;-70
2022/12/15 16:40:48;;;;;;;6.80;5.27;;;;;;;1.45;79.04;100728.25;6177454;28;20320;-71
2022/12/15 16:44:12;;;;;;;6.00;5.03;;;;;;;1.44;78.70;100727.38;6192588;28;20229;-70
2022/12/15 16:47:35;;;;;;;5.53;4.87;;;;;;;1.44;78.56;100738.00;6171206;28;20229;-72
2022/12/15 16:50:58;;;;;;;16.40;6.47;;;;;;;1.44;78.99;100734.53;6176994;28;20237;-69
2022/12/15 16:54:21;;;;;;;6.93;5.20;;;;;;;1.42;78.80;100737.22;6189098;28;20233;-70
2022/12/15 16:57:42;;;;;;;7.13;5.63;;;;;;;1.44;78.53;100745.97;6183449;28;20237;-70
2022/12/15 17:01:05;;;;;;;5.00;4.50;;;;;;;1.48;78.35;100744.88;6171930;28;20316;-70
2022/12/15 17:04:29;;;;;;;4.83;4.13;;;;;;;1.48;78.69;100755.50;6184784;28;20253;-69
2022/12/15 17:07:55;;;;;;;5.83;5.33;;;;;;;1.43;78.75;100757.56;6173339;28;20607;-70
2022/12/15 17:11:23;;;;;;;7.43;5.53;;;;;;;1.43;79.41;100759.34;6160224;28;20237;-69
2022/12/15 17:14:44;;;;;;;6.63;4.83;;;;;;;1.25;79.70;100761.16;6186273;28;20229;-69
2022/12/15 17:18:11;;;;;;;6.40;4.67;;;;;;;1.20;79.94;100762.34;6182230;28;20595;-72
2022/12/15 17:21:43;;;;;;;9.77;5.17;;;;;;;1.09;80.24;100762.03;6175606;28;20249;-70
2022/12/15 17:25:09;;;;;;;7.60;6.20;;;;;;;1.05;80.29;100758.69;6175526;28;20237;-70
2022/12/15 17:28:35;;;;;;;8.03;4.77;;;;;;;1.02;81.03;100763.31;6195480;28;20257;-72
2022/12/15 17:31:59;;;;;;;7.00;4.83;;;;;;;0.97;80.88;100779.47;6185359;28;20531;-70
2022/12/15 17:35:21;;;;;;;9.03;5.77;;;;;;;0.88;81.56;100776.44;6189623;28;21193;-71
2022/12/15 17:38:42;;;;;;;11.23;6.67;;;;;;;0.82;81.92;100772.28;6202533;28;20225;-69
2022/12/15 17:42:03;;;;;;;7.93;5.70;;;;;;;0.85;81.42;100784.53;6187893;28;20607;-72
2022/12/15 17:45:24;;;;;;;8.13;7.37;;;;;;;0.85;82.12;100779.22;6192480;28;20457;-69
2022/12/15 17:48:45;;;;;;;7.93;5.80;;;;;;;0.83;81.64;100801.38;6201276;28;21079;-70
2022/12/15 17:52:27;;;;;;;8.30;6.10;;;;;;;0.81;81.55;100791.78;6190084;28;20829;-71
2022/12/15 17:55:52;;;;;;;11.17;5.77;;;;;;;0.71;82.42;100801.13;6196245;28;20257;-74
2022/12/15 17:59:16;;;;;;;7.70;5.23;;;;;;;0.55;82.51;100800.16;6194915;28;20229;-69
2022/12/15 18:02:37;;;;;;;8.30;6.70;;;;;;;0.42;83.18;100805.22;6186019;28;20792;-69
2022/12/15 18:06:00;;;;;;;8.13;6.87;;;;;;;0.36;82.75;100809.94;6177051;28;20233;-70
2022/12/15 18:09:29;;;;;;;10.93;6.83;;;;;;;0.29;83.18;100819.16;6182488;28;20279;-70
2022/12/15 18:12:57;;;;;;;6.67;5.83;;;;;;;0.18;84.01;100817.00;6174708;28;20236;-70
2022/12/15 18:16:21;;;;;;;11.30;7.67;;;;;;;0.20;83.44;100817.78;6152833;28;20364;-71
2022/12/15 18:19:42;;;;;;;9.37;6.37;;;;;;;0.23;83.75;100822.09;6171950;28;20644;-70
2022/12/15 18:23:13;;;;;;;5.77;5.20;;;;;;;0.18;83.11;100824.94;6167095;28;20253;-70
2022/12/15 18:26:40;;;;;;;8.47;6.53;;;;;;;0.30;82.97;100823.50;6178394;28;20541;-70
2022/12/15 18:30:01;;;;;;;16.87;7.90;;;;;;;0.33;83.30;100828.66;6171568;28;20213;-71